Terminal Aerodrome Forecast
Issued by NWS

Home | Current Version | Previous Version | Text Only | Print | Product List | Glossary On
Versions: 1 2 3 4 5 6 7 8 9 10 11 12 13
000
FTUS42 KTBW 292300
TAFLAL
TAF
KLAL 292339Z 3000/3024 27008KT P6SM VCSH SCT035 BKN250
     FM300200 VRB04KT P6SM SCT020 BKN250
     FM301600 34006KT P6SM SCT020 SCT250
     FM301800 30008KT P6SM VCTS SCT025CB SCT250
      AMD NOT SKED 3003/3012=

USA.gov is the U.S. government's official web portal to all federal, state and local government web resources and services.